Time;durP1;ratioP1;P1;durP2;ratioP2;P2;SDS_P1;SDS_P2;PMS_P1;PMS_P2;Temp;Humidity;BMP_temperature;BMP_pressure;BME280_temperature;BME280_humidity;BME280_pressure;Samples;Min_cycle;Max_cycle;Signal;HPM_P1;HPM_P2
2022/09/06 00:02:00;;;;;;;6.25;4.80;;;;;;;18.16;100.00;96808.91;5058073;28;20296;-51
2022/09/06 00:04:27;;;;;;;7.30;5.00;;;;;;;18.15;100.00;96794.69;5057422;28;20277;-52
2022/09/06 00:06:56;;;;;;;5.80;4.57;;;;;;;18.14;100.00;96805.59;5056778;28;20632;-53
2022/09/06 00:09:23;;;;;;;4.85;4.32;;;;;;;18.21;100.00;96806.50;5056646;28;20648;-52
2022/09/06 00:11:52;;;;;;;5.25;4.80;;;;;;;18.21;100.00;96807.31;5064569;28;20198;-52
2022/09/06 00:14:19;;;;;;;5.32;4.70;;;;;;;18.19;100.00;96814.69;5077612;28;20748;-52
2022/09/06 00:16:46;;;;;;;6.15;5.05;;;;;;;18.19;100.00;96814.69;5088479;28;20213;-53
2022/09/06 00:19:13;;;;;;;5.57;4.80;;;;;;;18.21;100.00;96811.84;5066720;28;20246;-52
2022/09/06 00:21:39;;;;;;;7.25;4.55;;;;;;;18.19;100.00;96812.03;5058386;28;20230;-50
2022/09/06 00:24:08;;;;;;;5.20;4.70;;;;;;;18.22;100.00;96813.50;5056539;28;20286;-53
2022/09/06 00:26:36;;;;;;;5.97;4.80;;;;;;;18.24;100.00;96817.66;5056435;28;20211;-53
2022/09/06 00:29:03;;;;;;;5.43;4.88;;;;;;;18.24;100.00;96816.84;5056408;28;20619;-52
2022/09/06 00:31:30;;;;;;;5.55;5.13;;;;;;;18.21;100.00;96817.22;5057940;28;20211;-52
2022/09/06 00:33:56;;;;;;;5.75;5.20;;;;;;;18.22;100.00;96824.19;5067347;28;20266;-52
2022/09/06 00:36:25;;;;;;;6.38;4.50;;;;;;;18.20;100.00;96820.91;5075775;28;20301;-52
2022/09/06 00:38:52;;;;;;;7.40;5.10;;;;;;;18.23;100.00;96816.00;5075449;28;20264;-52
2022/09/06 00:41:23;;;;;;;5.93;5.03;;;;;;;18.24;100.00;96824.88;5057012;28;20239;-50
2022/09/06 00:43:50;;;;;;;5.30;4.47;;;;;;;18.25;100.00;96826.50;5064258;28;20286;-52
2022/09/06 00:46:19;;;;;;;5.65;4.80;;;;;;;18.24;100.00;96814.16;5056290;28;20242;-51
2022/09/06 00:48:46;;;;;;;5.82;4.50;;;;;;;18.25;100.00;96815.78;5063302;28;20226;-51
2022/09/06 00:51:15;;;;;;;6.35;4.40;;;;;;;18.26;100.00;96814.78;5055979;28;20285;-52
2022/09/06 00:53:45;;;;;;;5.03;4.53;;;;;;;18.27;100.00;96827.16;5055892;28;20290;-52
2022/09/06 00:56:13;;;;;;;4.55;4.20;;;;;;;18.28;100.00;96826.97;5061673;28;20217;-51
2022/09/06 00:58:43;;;;;;;5.60;5.05;;;;;;;18.29;100.00;96831.31;5060406;28;20589;-52
2022/09/06 01:01:10;;;;;;;4.75;4.35;;;;;;;18.33;100.00;96832.59;5055513;28;20730;-53
2022/09/06 01:03:37;;;;;;;4.80;4.35;;;;;;;18.35;100.00;96827.88;5067779;28;20290;-52
2022/09/06 01:06:13;;;;;;;4.38;4.00;;;;;;;18.38;100.00;96829.38;5055789;28;20295;-51
2022/09/06 01:08:49;;;;;;;5.88;4.55;;;;;;;18.38;100.00;96832.03;5059723;28;20237;-52
2022/09/06 01:11:33;;;;;;;4.88;4.57;;;;;;;18.40;100.00;96833.50;5063130;28;20286;-52
2022/09/06 01:14:08;;;;;;;4.45;4.05;;;;;;;18.45;100.00;96834.81;5054827;28;20285;-52
2022/09/06 01:16:40;;;;;;;5.30;4.35;;;;;;;18.47;100.00;96832.75;5055582;28;20570;-53
2022/09/06 01:19:32;;;;;;;4.80;4.30;;;;;;;18.50;100.00;96829.69;5065387;28;20222;-53
2022/09/06 01:22:11;;;;;;;4.70;4.28;;;;;;;18.53;100.00;96832.06;5054902;28;20293;-51
2022/09/06 01:24:53;;;;;;;5.43;4.45;;;;;;;18.52;100.00;96831.22;5055279;28;20249;-51
2022/09/06 01:27:39;;;;;;;4.82;4.43;;;;;;;18.56;100.00;96829.00;5055234;28;20203;-52
2022/09/06 01:30:07;;;;;;;4.70;4.32;;;;;;;18.55;100.00;96835.38;5061423;28;20198;-50
2022/09/06 01:32:39;;;;;;;4.88;4.45;;;;;;;18.53;100.00;96838.22;5065420;28;20612;-51
2022/09/06 01:35:13;;;;;;;4.97;4.57;;;;;;;18.52;100.00;96825.88;5063800;28;20602;-52
2022/09/06 01:37:42;;;;;;;5.13;4.63;;;;;;;18.52;100.00;96836.59;5072011;28;20285;-51
2022/09/06 01:40:09;;;;;;;4.95;4.47;;;;;;;18.49;100.00;96839.59;5053855;28;20203;-51
2022/09/06 01:42:40;;;;;;;4.90;4.43;;;;;;;18.46;100.00;96842.63;5054782;28;20243;-51
2022/09/06 01:45:09;;;;;;;4.88;4.47;;;;;;;18.43;100.00;96837.66;5060277;28;20295;-51
2022/09/06 01:47:45;;;;;;;4.82;4.32;;;;;;;18.46;100.00;96856.03;5056370;28;20294;-52
2022/09/06 01:50:49;;;;;;;6.43;4.20;;;;;;;18.41;100.00;96853.09;5064757;28;20285;-51
2022/09/06 01:53:31;;;;;;;5.20;4.50;;;;;;;18.32;100.00;96849.66;5054577;28;20253;-51
2022/09/06 01:56:06;;;;;;;4.88;4.47;;;;;;;18.29;100.00;96852.72;5072222;28;20214;-51
2022/09/06 01:58:57;;;;;;;6.15;4.30;;;;;;;18.25;100.00;96856.78;5073609;28;20293;-52
2022/09/06 02:01:29;;;;;;;4.72;4.15;;;;;;;18.21;100.00;96858.16;5054893;28;20244;-52
2022/09/06 02:04:00;;;;;;;5.05;4.50;;;;;;;18.20;100.00;96856.53;5057513;28;20241;-51
2022/09/06 02:06:29;;;;;;;4.35;4.05;;;;;;;18.19;100.00;96856.69;5054903;28;20203;-51
2022/09/06 02:09:02;;;;;;;4.70;4.35;;;;;;;18.13;100.00;96852.09;5054583;28;20214;-53
2022/09/06 02:11:33;;;;;;;4.38;3.97;;;;;;;18.10;100.00;96852.47;5069615;28;20627;-51
2022/09/06 02:14:05;;;;;;;5.03;4.50;;;;;;;18.05;100.00;96849.50;5057454;28;20258;-53
2022/09/06 02:16:37;;;;;;;6.00;4.40;;;;;;;18.10;100.00;96857.81;5055020;28;20298;-52
2022/09/06 02:19:06;;;;;;;4.80;4.40;;;;;;;18.08;100.00;96859.84;5054698;28;20547;-51
2022/09/06 02:21:36;;;;;;;5.20;4.57;;;;;;;18.03;100.00;96852.34;5054762;28;20249;-51
2022/09/06 02:24:06;;;;;;;5.18;4.78;;;;;;;18.07;100.00;96847.47;5070927;28;20203;-51
2022/09/06 02:26:39;;;;;;;4.65;4.25;;;;;;;18.10;100.00;96841.75;5073908;28;20203;-53
2022/09/06 02:29:08;;;;;;;5.32;4.93;;;;;;;18.07;100.00;96844.78;5077392;28;20206;-52
2022/09/06 02:31:38;;;;;;;5.72;5.20;;;;;;;18.05;100.00;96844.97;5067145;28;20286;-50
2022/09/06 02:34:05;;;;;;;4.90;4.50;;;;;;;18.08;100.00;96849.97;5055150;28;20282;-52
2022/09/06 02:36:32;;;;;;;6.45;4.40;;;;;;;18.09;100.00;96845.44;5058387;28;20321;-51
2022/09/06 02:39:01;;;;;;;4.88;4.32;;;;;;;18.12;100.00;96840.56;5058632;28;20249;-52
2022/09/06 02:41:29;;;;;;;5.38;4.82;;;;;;;18.15;100.00;96844.69;5061274;28;20537;-52
2022/09/06 02:43:56;;;;;;;4.80;4.40;;;;;;;18.18;100.00;96833.63;5068903;28;20199;-52
2022/09/06 02:46:25;;;;;;;5.38;4.15;;;;;;;18.21;100.00;96830.59;5060886;28;20715;-51
2022/09/06 02:48:51;;;;;;;4.50;4.20;;;;;;;18.22;100.00;96826.88;5078522;28;20285;-51
2022/09/06 02:51:19;;;;;;;5.40;4.60;;;;;;;18.23;100.00;96833.91;5072998;28;20296;-52
2022/09/06 02:53:48;;;;;;;4.75;4.35;;;;;;;18.27;100.00;96832.53;5058131;28;20617;-50
2022/09/06 02:56:19;;;;;;;4.60;4.20;;;;;;;18.31;100.00;96839.16;5061339;28;20734;-51
2022/09/06 02:58:46;;;;;;;4.95;4.38;;;;;;;18.32;100.00;96835.44;5061070;28;20817;-51
2022/09/06 03:01:12;;;;;;;7.40;4.07;;;;;;;18.33;100.00;96832.59;5073830;28;20261;-50
2022/09/06 03:03:41;;;;;;;5.07;4.50;;;;;;;18.37;100.00;96827.69;5070153;28;20243;-51
2022/09/06 03:06:08;;;;;;;5.32;4.68;;;;;;;18.39;100.00;96831.84;5058313;28;20290;-52
2022/09/06 03:08:35;;;;;;;5.88;4.45;;;;;;;18.43;100.00;96832.28;5058243;28;20276;-52
2022/09/06 03:11:02;;;;;;;4.55;4.22;;;;;;;18.46;100.00;96831.13;5058983;28;20273;-52
2022/09/06 03:13:29;;;;;;;7.03;4.75;;;;;;;18.45;100.00;96830.28;5056935;28;20243;-52
2022/09/06 03:15:57;;;;;;;6.32;4.50;;;;;;;18.46;100.00;96828.44;5058027;28;20720;-52
2022/09/06 03:18:23;;;;;;;4.65;4.25;;;;;;;18.48;100.00;96829.91;5057923;28;20310;-53
2022/09/06 03:20:55;;;;;;;4.72;4.32;;;;;;;18.47;100.00;96822.88;5057657;28;20234;-51
2022/09/06 03:23:25;;;;;;;4.55;4.25;;;;;;;18.47;100.00;96820.19;5057749;28;20235;-50
2022/09/06 03:25:52;;;;;;;4.65;4.32;;;;;;;18.47;100.00;96833.59;5058058;28;20290;-53
2022/09/06 03:28:19;;;;;;;5.30;4.85;;;;;;;18.47;100.00;96833.59;5057311;28;20628;-50
2022/09/06 03:30:47;;;;;;;5.35;4.90;;;;;;;18.49;100.00;96836.09;5057865;28;20272;-52
2022/09/06 03:33:14;;;;;;;5.80;5.30;;;;;;;18.50;100.00;96835.88;5057593;28;20252;-51
2022/09/06 03:35:42;;;;;;;5.40;5.00;;;;;;;18.51;100.00;96832.22;5057631;28;20227;-51
2022/09/06 03:38:13;;;;;;;6.85;5.43;;;;;;;18.51;100.00;96834.91;5070480;28;20207;-52
2022/09/06 03:40:40;;;;;;;5.97;5.47;;;;;;;18.52;100.00;96841.09;5057711;28;20203;-52
2022/09/06 03:43:07;;;;;;;5.55;5.15;;;;;;;18.52;100.00;96846.47;5056734;28;20258;-54
2022/09/06 03:45:34;;;;;;;5.70;5.20;;;;;;;18.51;100.00;96840.28;5057036;28;20246;-52
2022/09/06 03:48:00;;;;;;;6.00;5.40;;;;;;;18.50;100.00;96838.56;5057173;28;20290;-53
2022/09/06 03:50:27;;;;;;;5.82;5.22;;;;;;;18.51;100.00;96836.75;5057403;28;20290;-51
2022/09/06 03:52:54;;;;;;;5.53;5.03;;;;;;;18.51;100.00;96828.72;5056990;28;20203;-51
2022/09/06 03:55:26;;;;;;;5.20;4.80;;;;;;;18.48;100.00;96827.22;5056864;28;20318;-52
2022/09/06 03:57:54;;;;;;;5.35;4.85;;;;;;;18.44;100.00;96823.25;5056527;28;20585;-52
2022/09/06 04:00:21;;;;;;;5.57;5.05;;;;;;;18.41;100.00;96829.00;5068900;28;20253;-51
2022/09/06 04:02:48;;;;;;;5.88;5.32;;;;;;;18.36;100.00;96826.88;5064645;28;20249;-51
2022/09/06 04:05:15;;;;;;;5.93;5.32;;;;;;;18.35;100.00;96827.06;5060971;28;20234;-52
2022/09/06 04:07:44;;;;;;;5.32;4.68;;;;;;;18.30;100.00;96832.13;5056945;28;20588;-52
2022/09/06 04:10:11;;;;;;;5.07;4.45;;;;;;;18.27;100.00;96833.34;5056849;28;20289;-50
2022/09/06 04:12:39;;;;;;;4.93;4.45;;;;;;;18.25;100.00;96829.19;5056671;28;20318;-52
2022/09/06 04:15:07;;;;;;;4.57;4.18;;;;;;;18.25;100.00;96829.19;5056292;28;20303;-51
2022/09/06 04:17:34;;;;;;;5.85;4.32;;;;;;;18.20;100.00;96827.09;5054593;28;20295;-50
2022/09/06 04:20:02;;;;;;;6.65;5.15;;;;;;;18.17;100.00;96819.44;5057056;28;20704;-51
2022/09/06 04:22:30;;;;;;;6.32;5.72;;;;;;;18.19;100.00;96824.56;5065756;28;20265;-50
2022/09/06 04:24:57;;;;;;;6.60;6.00;;;;;;;18.15;100.00;96824.13;5069868;28;20246;-50
2022/09/06 04:27:24;;;;;;;4.47;4.18;;;;;;;18.16;100.00;96830.31;5056676;28;20207;-53
2022/09/06 04:29:55;;;;;;;5.50;4.10;;;;;;;18.13;100.00;96838.72;5056017;28;20722;-53
2022/09/06 04:32:22;;;;;;;6.80;4.20;;;;;;;18.10;100.00;96839.09;5056485;28;20207;-51
2022/09/06 04:34:50;;;;;;;6.93;4.68;;;;;;;18.08;100.00;96841.94;5062594;28;20246;-53
2022/09/06 04:37:18;;;;;;;4.35;4.07;;;;;;;18.08;100.00;96833.91;5074973;28;20536;-55
2022/09/06 04:39:47;;;;;;;4.43;4.03;;;;;;;18.05;100.00;96838.78;5072176;28;20210;-53
2022/09/06 04:42:15;;;;;;;5.13;4.40;;;;;;;18.02;100.00;96839.16;5068364;28;20225;-52
2022/09/06 04:44:41;;;;;;;4.18;3.70;;;;;;;17.99;100.00;96835.03;5061689;28;20693;-53
2022/09/06 04:47:13;;;;;;;6.68;4.57;;;;;;;17.94;100.00;96832.06;5062218;28;20513;-51
2022/09/06 04:49:41;;;;;;;4.85;4.45;;;;;;;17.89;100.00;96837.94;5055479;28;20211;-53
2022/09/06 04:52:08;;;;;;;5.28;4.60;;;;;;;17.85;100.00;96833.19;5056047;28;20293;-53
2022/09/06 04:54:36;;;;;;;4.82;4.43;;;;;;;17.82;100.00;96830.84;5063123;28;20286;-52
2022/09/06 04:57:08;;;;;;;4.43;4.13;;;;;;;17.79;100.00;96834.72;5070596;28;20321;-51
2022/09/06 04:59:35;;;;;;;4.70;4.20;;;;;;;17.73;100.00;96829.28;5065336;28;20203;-53
2022/09/06 05:02:02;;;;;;;4.53;4.13;;;;;;;17.69;100.00;96839.50;5075615;28;20267;-52
2022/09/06 05:04:30;;;;;;;6.18;4.35;;;;;;;17.70;100.00;96835.81;5065702;28;20222;-53
2022/09/06 05:07:01;;;;;;;5.15;4.05;;;;;;;17.70;100.00;96845.69;5060181;28;20671;-52
2022/09/06 05:09:29;;;;;;;5.50;4.50;;;;;;;17.62;100.00;96838.56;5055865;28;20203;-51
2022/09/06 05:11:57;;;;;;;4.90;4.32;;;;;;;17.61;100.00;96847.59;5055169;28;20306;-50
2022/09/06 05:14:25;;;;;;;4.82;4.30;;;;;;;17.68;100.00;96847.69;5055153;28;20305;-53
2022/09/06 05:16:51;;;;;;;4.65;4.20;;;;;;;17.68;100.00;96840.50;5068360;28;20306;-52
2022/09/06 05:19:18;;;;;;;5.32;4.25;;;;;;;17.68;100.00;96853.88;5061867;28;20222;-51
2022/09/06 05:21:47;;;;;;;7.95;4.10;;;;;;;17.64;100.00;96852.59;5060039;28;20206;-51
2022/09/06 05:24:13;;;;;;;8.27;4.35;;;;;;;17.64;100.00;96865.97;5061914;28;20238;-52
2022/09/06 05:26:40;;;;;;;4.75;4.20;;;;;;;17.68;100.00;96858.41;5055181;28;20287;-51
2022/09/06 05:29:07;;;;;;;4.65;4.30;;;;;;;17.65;100.00;96858.78;5055384;28;20294;-53
2022/09/06 05:31:35;;;;;;;4.72;4.30;;;;;;;17.70;100.00;96862.56;5054951;28;20253;-50
2022/09/06 05:34:02;;;;;;;4.97;4.32;;;;;;;17.70;100.00;96867.94;5058715;28;20289;-51
2022/09/06 05:36:30;;;;;;;4.90;4.45;;;;;;;17.73;100.00;96866.72;5054725;28;20293;-53
2022/09/06 05:39:01;;;;;;;6.80;4.35;;;;;;;17.76;100.00;96863.69;5055036;28;20294;-53
2022/09/06 05:41:28;;;;;;;5.03;4.53;;;;;;;17.86;100.00;96861.56;5055182;28;20209;-53
2022/09/06 05:43:54;;;;;;;4.63;4.25;;;;;;;17.95;100.00;96859.66;5061477;28;20294;-53
2022/09/06 05:46:21;;;;;;;4.68;4.28;;;;;;;18.02;100.00;96866.78;5054955;28;20290;-52
2022/09/06 05:48:54;;;;;;;6.57;4.65;;;;;;;18.13;100.00;96870.84;5055149;28;20294;-52
2022/09/06 05:51:21;;;;;;;4.97;4.47;;;;;;;18.26;100.00;96873.69;5062401;28;20290;-52
2022/09/06 05:53:48;;;;;;;5.43;4.45;;;;;;;18.40;100.00;96865.66;5060681;28;20289;-52
2022/09/06 05:56:17;;;;;;;4.72;4.43;;;;;;;18.62;100.00;96868.41;5062705;28;20313;-52
2022/09/06 05:58:44;;;;;;;4.68;4.38;;;;;;;18.85;100.00;96875.28;5062135;28;20277;-52
2022/09/06 06:01:15;;;;;;;5.43;4.90;;;;;;;19.09;100.00;96873.28;5074724;28;20292;-53
2022/09/06 06:03:42;;;;;;;5.38;4.50;;;;;;;19.45;100.00;96882.13;5070737;28;20286;-52
2022/09/06 06:06:09;;;;;;;6.03;4.90;;;;;;;19.80;100.00;96877.69;5054836;28;20290;-52
2022/09/06 06:08:36;;;;;;;5.55;5.05;;;;;;;19.94;100.00;96879.44;5054254;28;20662;-53
2022/09/06 06:11:03;;;;;;;5.20;4.65;;;;;;;20.12;100.00;96884.31;5054302;28;20290;-52
2022/09/06 06:13:33;;;;;;;7.72;5.00;;;;;;;20.78;100.00;96874.78;5055019;28;20246;-52
2022/09/06 06:16:01;;;;;;;4.70;4.18;;;;;;;21.54;97.12;96889.66;5055835;28;20223;-51
2022/09/06 06:18:29;;;;;;;6.68;4.47;;;;;;;22.12;91.77;96889.91;5056093;28;20219;-52
2022/09/06 06:21:08;;;;;;;7.90;4.53;;;;;;;22.12;92.15;96879.13;5067381;28;20266;-52
2022/09/06 06:23:35;;;;;;;8.95;4.43;;;;;;;22.67;88.11;96886.69;5056161;28;20262;-52
2022/09/06 06:26:02;;;;;;;5.75;4.10;;;;;;;23.10;83.96;96884.22;5055557;28;20644;-53
2022/09/06 06:28:29;;;;;;;5.13;3.90;;;;;;;23.06;83.66;96882.19;5054472;28;20684;-51
2022/09/06 06:30:57;;;;;;;5.55;4.55;;;;;;;23.10;83.52;96886.09;5054161;28;20517;-53
2022/09/06 06:33:24;;;;;;;5.97;4.50;;;;;;;22.95;84.64;96896.34;5054658;28;20294;-52
2022/09/06 06:35:58;;;;;;;5.32;4.28;;;;;;;23.23;84.22;96894.13;5054153;28;20647;-51
2022/09/06 06:38:25;;;;;;;6.13;4.32;;;;;;;23.59;79.55;96888.13;5054573;28;20727;-52
2022/09/06 06:40:51;;;;;;;5.45;3.95;;;;;;;23.71;79.01;96887.19;5054243;28;20206;-51
2022/09/06 06:43:19;;;;;;;4.22;3.70;;;;;;;23.56;76.25;96889.38;5055647;28;20687;-50
2022/09/06 06:45:49;;;;;;;4.43;3.55;;;;;;;23.25;78.74;96892.88;5055555;28;20268;-51
2022/09/06 06:48:17;;;;;;;6.15;3.88;;;;;;;22.80;84.80;96891.22;5060054;28;20207;-52
2022/09/06 06:50:44;;;;;;;3.95;3.38;;;;;;;22.43;84.90;96892.75;5063189;28;20621;-53
2022/09/06 06:53:11;;;;;;;4.07;3.67;;;;;;;22.15;84.06;96882.25;5068855;28;20235;-52
2022/09/06 06:55:40;;;;;;;4.28;3.45;;;;;;;21.98;83.25;96888.25;5076853;28;20200;-52
2022/09/06 06:58:07;;;;;;;4.45;3.50;;;;;;;21.83;87.04;96883.88;5087737;28;20635;-52
2022/09/06 07:00:34;;;;;;;6.80;3.58;;;;;;;21.70;90.81;96878.50;5080623;28;20206;-52
2022/09/06 07:03:01;;;;;;;4.45;4.05;;;;;;;21.52;92.93;96872.91;5078308;28;20302;-52
2022/09/06 07:05:29;;;;;;;6.22;3.88;;;;;;;21.51;92.46;96865.84;5072824;28;20705;-52
2022/09/06 07:07:56;;;;;;;8.73;4.22;;;;;;;21.46;94.31;96867.53;5056576;28;20253;-52
2022/09/06 07:10:23;;;;;;;4.35;3.85;;;;;;;21.52;92.96;96864.84;5066075;28;20290;-53
2022/09/06 07:12:56;;;;;;;6.65;3.97;;;;;;;21.49;91.53;96859.88;5054695;28;20326;-53
2022/09/06 07:15:23;;;;;;;4.20;3.90;;;;;;;21.43;92.27;96863.41;5054789;28;20822;-53
2022/09/06 07:17:51;;;;;;;6.47;3.83;;;;;;;21.38;90.73;96860.47;5056112;28;20310;-53
2022/09/06 07:20:19;;;;;;;3.92;3.53;;;;;;;21.36;92.51;96873.31;5058312;28;20241;-52
2022/09/06 07:22:58;;;;;;;4.10;3.70;;;;;;;21.31;90.50;96875.78;5062568;28;20203;-54
2022/09/06 07:25:25;;;;;;;5.35;3.70;;;;;;;21.23;91.86;96863.34;5078472;28;20210;-51
2022/09/06 07:27:56;;;;;;;5.07;3.75;;;;;;;21.17;92.77;96864.16;5099668;28;20187;-53
2022/09/06 07:30:23;;;;;;;5.82;3.70;;;;;;;21.13;93.38;96867.47;5080528;28;20191;-52
2022/09/06 07:32:50;;;;;;;6.05;3.50;;;;;;;21.12;94.94;96876.56;5071927;28;20204;-53
2022/09/06 07:35:19;;;;;;;6.35;3.78;;;;;;;21.07;94.08;96884.38;5065685;28;20246;-52
2022/09/06 07:37:53;;;;;;;5.18;3.38;;;;;;;21.02;94.28;96879.59;5071320;28;20286;-53
2022/09/06 07:40:21;;;;;;;4.82;3.70;;;;;;;20.99;95.22;96877.31;5087358;28;20198;-53
2022/09/06 07:42:49;;;;;;;4.30;3.38;;;;;;;20.97;96.11;96865.13;5079928;28;20215;-52
2022/09/06 07:45:16;;;;;;;4.97;3.47;;;;;;;20.95;96.35;96875.22;5077048;28;20206;-52
2022/09/06 07:47:43;;;;;;;5.45;3.45;;;;;;;20.89;94.21;96884.94;5076499;28;20203;-53
2022/09/06 07:50:10;;;;;;;4.88;3.65;;;;;;;20.89;95.02;96886.81;5077665;28;20187;-52
2022/09/06 07:52:37;;;;;;;7.43;3.67;;;;;;;20.84;94.54;96890.91;5079211;28;20207;-53
2022/09/06 07:55:07;;;;;;;3.63;3.33;;;;;;;20.82;94.93;96903.75;5080002;28;20217;-52
2022/09/06 07:57:35;;;;;;;3.50;3.20;;;;;;;20.79;95.66;96911.38;5079707;28;20214;-52
2022/09/06 08:00:04;;;;;;;3.85;3.50;;;;;;;20.75;98.54;96937.84;5073037;28;20203;-51
2022/09/06 08:02:30;;;;;;;3.55;3.35;;;;;;;20.71;100.00;96963.44;5064558;28;20202;-51
2022/09/06 08:04:57;;;;;;;6.13;4.60;;;;;;;20.62;100.00;96970.00;5063217;28;20218;-52
2022/09/06 08:07:24;;;;;;;5.63;5.13;;;;;;;20.54;100.00;96948.66;5056953;28;20230;-51
2022/09/06 08:09:51;;;;;;;4.97;4.50;;;;;;;20.41;100.00;96935.13;5056689;28;20612;-51
2022/09/06 08:12:19;;;;;;;4.68;4.28;;;;;;;20.31;100.00;96934.66;5056593;28;20304;-51
2022/09/06 08:14:45;;;;;;;5.35;4.50;;;;;;;20.12;100.00;96943.41;5056853;28;20615;-51
2022/09/06 08:17:12;;;;;;;5.45;4.32;;;;;;;20.12;100.00;96963.00;5056528;28;20262;-53
2022/09/06 08:19:39;;;;;;;5.18;4.38;;;;;;;20.12;100.00;96971.06;5057009;28;20298;-53
2022/09/06 08:22:06;;;;;;;7.18;4.78;;;;;;;19.91;100.00;96967.59;5068797;28;20257;-52
2022/09/06 08:24:35;;;;;;;7.68;5.18;;;;;;;19.84;100.00;96946.88;5056616;28;20292;-51
2022/09/06 08:27:02;;;;;;;7.47;4.43;;;;;;;19.71;100.00;96952.13;5064231;28;20198;-51
2022/09/06 08:29:30;;;;;;;9.60;4.50;;;;;;;19.62;100.00;96953.28;5060645;28;20706;-51
2022/09/06 08:31:57;;;;;;;8.13;5.05;;;;;;;19.61;100.00;96957.00;5056502;28;20599;-50
2022/09/06 08:34:25;;;;;;;7.55;4.78;;;;;;;19.58;100.00;96952.00;5055995;28;20294;-52
2022/09/06 08:36:52;;;;;;;5.97;4.60;;;;;;;19.59;100.00;96950.16;5056033;28;20687;-51
2022/09/06 08:39:18;;;;;;;6.55;5.20;;;;;;;19.60;100.00;96941.91;5069725;28;20303;-52
2022/09/06 08:41:50;;;;;;;6.03;4.93;;;;;;;19.67;100.00;96950.84;5056259;28;20262;-53
2022/09/06 08:44:19;;;;;;;7.53;5.22;;;;;;;19.71;100.00;96936.03;5055964;28;20207;-53
2022/09/06 08:46:54;;;;;;;7.55;5.25;;;;;;;19.69;100.00;96937.25;5065957;28;20272;-52
2022/09/06 08:49:22;;;;;;;8.68;5.60;;;;;;;19.77;100.00;96937.09;5076001;28;20234;-51
2022/09/06 08:52:14;;;;;;;6.88;5.63;;;;;;;19.84;100.00;96938.81;5076111;28;20213;-52
2022/09/06 08:54:45;;;;;;;6.25;5.22;;;;;;;19.90;100.00;96929.19;5059648;28;20253;-53
2022/09/06 08:57:22;;;;;;;9.20;5.63;;;;;;;19.97;100.00;96927.38;5073412;28;20215;-54
2022/09/06 08:59:51;;;;;;;9.82;5.80;;;;;;;20.03;100.00;96928.44;5067301;28;20281;-52
2022/09/06 09:02:22;;;;;;;6.90;5.45;;;;;;;20.04;100.00;96930.09;5075404;28;20828;-53
2022/09/06 09:04:52;;;;;;;9.23;5.50;;;;;;;20.05;100.00;96937.94;5066899;28;20233;-53
2022/09/06 09:07:35;;;;;;;6.65;5.60;;;;;;;20.09;100.00;96931.16;5072838;28;20207;-52
2022/09/06 09:10:07;;;;;;;6.55;5.15;;;;;;;20.13;100.00;96936.97;5065717;28;20203;-52
2022/09/06 09:12:38;;;;;;;7.53;5.32;;;;;;;20.10;100.00;96934.69;5065566;28;20325;-51
2022/09/06 09:15:07;;;;;;;7.05;5.18;;;;;;;20.11;100.00;96929.13;5061669;28;20659;-52
2022/09/06 09:17:37;;;;;;;10.50;6.13;;;;;;;20.17;100.00;96928.34;5064152;28;20241;-52
2022/09/06 09:20:05;;;;;;;7.03;5.38;;;;;;;20.29;100.00;96926.00;5055551;28;20241;-52
2022/09/06 09:22:31;;;;;;;8.38;5.43;;;;;;;20.53;100.00;96924.69;5055228;28;20628;-52
2022/09/06 09:24:59;;;;;;;5.22;4.82;;;;;;;20.90;100.00;96921.56;5055149;28;20211;-54
2022/09/06 09:27:27;;;;;;;6.22;5.10;;;;;;;21.23;100.00;96913.63;5055097;28;20711;-52
2022/09/06 09:30:03;;;;;;;9.40;5.50;;;;;;;21.43;100.00;96917.22;5060462;28;20238;-51
2022/09/06 09:32:31;;;;;;;8.05;4.80;;;;;;;21.69;100.00;96911.84;5061912;28;20202;-52
2022/09/06 09:35:19;;;;;;;6.88;5.30;;;;;;;22.15;100.00;96911.03;5055026;28;20223;-53
2022/09/06 09:37:47;;;;;;;6.22;4.65;;;;;;;22.64;100.00;96905.97;5054988;28;20305;-51
2022/09/06 09:40:15;;;;;;;8.25;4.38;;;;;;;23.15;100.00;96897.06;5055094;28;20294;-52
2022/09/06 09:42:42;;;;;;;4.93;4.15;;;;;;;23.70;100.00;96896.34;5054223;28;20235;-51
2022/09/06 09:45:26;;;;;;;8.82;4.75;;;;;;;24.16;99.72;96895.19;5054714;28;20239;-51
2022/09/06 09:47:53;;;;;;;5.70;4.72;;;;;;;24.44;99.27;96889.28;5054635;28;20304;-53
2022/09/06 09:50:27;;;;;;;5.38;4.63;;;;;;;24.82;97.69;96897.16;5054660;28;20210;-54
2022/09/06 09:52:54;;;;;;;7.38;3.90;;;;;;;24.59;95.89;96895.97;5054509;28;20520;-52
2022/09/06 09:55:25;;;;;;;7.70;3.97;;;;;;;24.41;99.10;96887.03;5068527;28;20257;-53
2022/09/06 09:57:53;;;;;;;9.98;4.82;;;;;;;24.08;97.53;96892.72;5066477;28;20219;-51
2022/09/06 10:00:34;;;;;;;6.05;4.07;;;;;;;23.95;93.90;96890.13;5070338;28;20202;-51
2022/09/06 10:03:01;;;;;;;7.95;3.80;;;;;;;23.92;92.51;96895.97;5065028;28;20207;-51
2022/09/06 10:05:29;;;;;;;9.95;4.38;;;;;;;24.47;93.24;96889.66;5053260;28;20229;-51
2022/09/06 10:07:57;;;;;;;5.57;3.92;;;;;;;24.94;91.54;96890.00;5053729;28;20286;-51
2022/09/06 10:10:25;;;;;;;7.50;4.03;;;;;;;24.99;86.84;96873.88;5054253;28;20213;-51
2022/09/06 10:13:06;;;;;;;9.57;3.58;;;;;;;25.26;83.83;96865.16;5054235;28;20285;-52
2022/09/06 10:15:35;;;;;;;8.02;3.40;;;;;;;25.69;80.37;96866.84;5054474;28;20217;-52
2022/09/06 10:18:04;;;;;;;8.50;3.55;;;;;;;25.97;77.85;96858.88;5054636;28;20318;-51
2022/09/06 10:20:35;;;;;;;9.93;3.63;;;;;;;26.17;79.25;96847.72;5061429;28;20249;-52
2022/09/06 10:23:07;;;;;;;6.65;3.25;;;;;;;26.48;75.23;96841.09;5074187;28;20296;-51
2022/09/06 10:25:40;;;;;;;6.82;3.80;;;;;;;26.59;72.39;96854.66;5074567;28;20289;-53
2022/09/06 10:28:31;;;;;;;6.68;3.20;;;;;;;26.38;72.20;96844.44;5074536;28;20293;-52
2022/09/06 10:31:30;;;;;;;8.07;3.28;;;;;;;26.52;73.62;96848.53;5074117;28;20238;-52
2022/09/06 10:34:14;;;;;;;7.45;3.58;;;;;;;26.46;74.96;96849.50;5040633;28;20207;-51
2022/09/06 10:36:50;;;;;;;4.38;3.08;;;;;;;26.37;75.51;96845.47;5054215;28;20592;-53
2022/09/06 10:39:25;;;;;;;7.72;3.40;;;;;;;26.46;74.97;96846.78;5054114;28;20708;-51
2022/09/06 10:42:01;;;;;;;8.50;3.17;;;;;;;26.59;79.75;96849.22;5054509;28;20217;-51
2022/09/06 10:44:40;;;;;;;10.35;4.03;;;;;;;26.49;76.00;96843.59;5054360;28;20631;-51
2022/09/06 10:47:10;;;;;;;8.48;3.78;;;;;;;26.75;75.51;96836.78;5067296;28;20306;-52
2022/09/06 10:49:43;;;;;;;5.07;3.42;;;;;;;26.90;75.30;96834.44;5075332;28;20288;-51
2022/09/06 10:52:14;;;;;;;6.57;3.78;;;;;;;26.99;72.23;96826.75;5074652;28;20619;-51
2022/09/06 10:54:46;;;;;;;7.22;3.90;;;;;;;27.17;72.69;96829.25;5055083;28;20245;-52
2022/09/06 10:57:18;;;;;;;5.53;3.28;;;;;;;27.27;69.02;96824.00;5070879;28;20206;-51
2022/09/06 10:59:50;;;;;;;5.65;2.72;;;;;;;27.19;68.46;96818.97;5069591;28;20222;-53
2022/09/06 11:02:31;;;;;;;5.80;2.65;;;;;;;26.83;67.69;96812.03;5077331;28;20198;-52
2022/09/06 11:05:01;;;;;;;8.65;3.17;;;;;;;26.46;67.58;96816.94;5065042;28;20199;-51
2022/09/06 11:07:30;;;;;;;7.10;2.78;;;;;;;26.06;68.57;96813.28;5058575;28;20290;-52
2022/09/06 11:09:59;;;;;;;6.53;2.20;;;;;;;25.89;68.90;96806.94;5057728;28;20231;-52
2022/09/06 11:12:38;;;;;;;7.03;2.85;;;;;;;25.71;73.55;96803.28;5057989;28;20298;-51
2022/09/06 11:15:07;;;;;;;6.13;2.72;;;;;;;25.46;73.42;96799.09;5058039;28;20203;-52
2022/09/06 11:17:39;;;;;;;4.72;2.58;;;;;;;25.24;72.03;96804.22;5072141;28;20223;-54
2022/09/06 11:20:11;;;;;;;5.07;2.75;;;;;;;25.10;73.53;96800.88;5067963;28;20207;-53
2022/09/06 11:22:48;;;;;;;5.40;2.50;;;;;;;24.93;71.76;96801.75;5068442;28;20210;-54
2022/09/06 11:25:57;;;;;;;4.85;2.50;;;;;;;24.80;77.57;96805.41;5058187;28;20203;-51
2022/09/06 11:28:29;;;;;;;9.27;2.65;;;;;;;24.56;78.26;96804.47;5057511;28;20326;-52
2022/09/06 11:30:57;;;;;;;8.98;3.00;;;;;;;24.36;72.84;96808.47;5070250;28;20194;-51
2022/09/06 11:33:29;;;;;;;8.48;2.70;;;;;;;24.25;79.15;96812.75;5057588;28;20246;-53
2022/09/06 11:36:16;;;;;;;3.90;2.33;;;;;;;24.09;79.38;96814.13;5057345;28;20628;-51
2022/09/06 11:38:54;;;;;;;3.67;2.40;;;;;;;23.95;79.08;96817.19;5057756;28;20303;-52
2022/09/06 11:41:21;;;;;;;4.45;2.15;;;;;;;23.84;77.64;96820.63;5070796;28;20203;-51